Alert, Canada
Current Conditions -  °F | °C
As of 3:00 AM on Friday 31 Oct 2014 (Local Time) from CWEU Reporting Station
Clear Clear  
Wind Chill: -35°   Ceiling: Unl
Heat Index: -35°   Visibility: 15mi
Dew Point: -39°   Wind: 2mph
Humidity: 68%   Direction: 70°ENE
Pressure: 30.2"   Gusts: NA
Location:  82.47°N, 62.5°W
Report Text: CWEU 310700Z 07002KT 15SM SKC M35/M39 A3020 RMK SLP230
Loading
Personal Weather Stations






























Interactive Weather Map
Tropical Storm Tracking
New forecast layout! Learn more

10-Day Weather Forecast

Advertisements
Track Severe Weather on mobile